sensor_id;sensor_type;location;lat;lon;timestamp;pressure;altitude;pressure_sealevel;temperature;humidity
16461;BME280;8341;42.048;24.650;2023-02-18T00:00:57;97940.53;;;9.61;39.30
16461;BME280;8341;42.048;24.650;2023-02-18T00:03:24;97931.78;;;9.66;39.40
16461;BME280;8341;42.048;24.650;2023-02-18T00:05:51;97931.47;;;9.64;39.42
16461;BME280;8341;42.048;24.650;2023-02-18T00:08:18;97933.59;;;9.60;39.38
16461;BME280;8341;42.048;24.650;2023-02-18T00:10:45;97922.59;;;9.72;40.05
16461;BME280;8341;42.048;24.650;2023-02-18T00:13:13;97921.81;;;9.72;38.62
16461;BME280;8341;42.048;24.650;2023-02-18T00:15:40;97915.13;;;9.64;38.64
16461;BME280;8341;42.048;24.650;2023-02-18T00:18:07;97925.13;;;9.67;38.29
16461;BME280;8341;42.048;24.650;2023-02-18T00:20:34;97909.50;;;9.49;39.04
16461;BME280;8341;42.048;24.650;2023-02-18T00:23:01;97916.00;;;9.52;39.27
16461;BME280;8341;42.048;24.650;2023-02-18T00:25:28;97915.13;;;9.55;39.40
16461;BME280;8341;42.048;24.650;2023-02-18T00:27:55;97910.56;;;9.52;39.48
16461;BME280;8341;42.048;24.650;2023-02-18T00:30:23;97904.22;;;9.55;38.99
16461;BME280;8341;42.048;24.650;2023-02-18T00:32:50;97901.44;;;9.45;40.04
16461;BME280;8341;42.048;24.650;2023-02-18T00:35:17;97901.81;;;9.57;38.97
16461;BME280;8341;42.048;24.650;2023-02-18T00:37:43;97909.09;;;9.60;38.47
16461;BME280;8341;42.048;24.650;2023-02-18T00:40:11;97901.22;;;9.62;39.15
16461;BME280;8341;42.048;24.650;2023-02-18T00:42:38;97901.38;;;9.67;38.59
16461;BME280;8341;42.048;24.650;2023-02-18T00:45:05;97896.06;;;9.64;39.27
16461;BME280;8341;42.048;24.650;2023-02-18T00:47:33;97896.97;;;9.61;38.31
16461;BME280;8341;42.048;24.650;2023-02-18T00:50:00;97884.28;;;9.67;38.63
16461;BME280;8341;42.048;24.650;2023-02-18T00:52:27;97882.44;;;9.55;38.32
16461;BME280;8341;42.048;24.650;2023-02-18T00:54:54;97874.28;;;9.55;38.79
16461;BME280;8341;42.048;24.650;2023-02-18T00:57:20;97875.47;;;9.54;38.45
16461;BME280;8341;42.048;24.650;2023-02-18T00:59:47;97867.00;;;9.52;38.44
16461;BME280;8341;42.048;24.650;2023-02-18T01:02:14;97858.53;;;9.50;38.93
16461;BME280;8341;42.048;24.650;2023-02-18T01:04:42;97851.84;;;9.41;38.74
16461;BME280;8341;42.048;24.650;2023-02-18T01:07:09;97851.44;;;9.52;38.48
16461;BME280;8341;42.048;24.650;2023-02-18T01:09:36;97844.59;;;9.48;38.88
16461;BME280;8341;42.048;24.650;2023-02-18T01:12:03;97838.53;;;9.43;37.82
16461;BME280;8341;42.048;24.650;2023-02-18T01:14:30;97836.28;;;9.42;38.83
16461;BME280;8341;42.048;24.650;2023-02-18T01:16:56;97828.13;;;9.42;38.50
16461;BME280;8341;42.048;24.650;2023-02-18T01:19:23;97826.75;;;9.47;38.50
16461;BME280;8341;42.048;24.650;2023-02-18T01:21:51;97817.69;;;9.50;39.32
16461;BME280;8341;42.048;24.650;2023-02-18T01:24:18;97808.75;;;9.49;39.42
16461;BME280;8341;42.048;24.650;2023-02-18T01:26:45;97811.91;;;9.48;39.18
16461;BME280;8341;42.048;24.650;2023-02-18T01:29:12;97813.09;;;9.37;37.90
16461;BME280;8341;42.048;24.650;2023-02-18T01:31:38;97799.81;;;9.39;38.21
16461;BME280;8341;42.048;24.650;2023-02-18T01:34:05;97797.25;;;9.45;38.27
16461;BME280;8341;42.048;24.650;2023-02-18T01:36:32;97792.56;;;9.45;38.55
16461;BME280;8341;42.048;24.650;2023-02-18T01:39:00;97792.44;;;9.49;38.97
16461;BME280;8341;42.048;24.650;2023-02-18T01:41:27;97785.56;;;9.26;37.26
16461;BME280;8341;42.048;24.650;2023-02-18T01:44:14;97783.50;;;9.39;38.37
16461;BME280;8341;42.048;24.650;2023-02-18T01:46:41;97780.44;;;9.37;38.49
16461;BME280;8341;42.048;24.650;2023-02-18T01:49:09;97778.66;;;9.43;38.12
16461;BME280;8341;42.048;24.650;2023-02-18T01:51:40;97782.56;;;9.42;38.05
16461;BME280;8341;42.048;24.650;2023-02-18T01:54:12;97780.63;;;9.43;38.82
16461;BME280;8341;42.048;24.650;2023-02-18T01:56:43;97780.44;;;9.37;38.48
16461;BME280;8341;42.048;24.650;2023-02-18T01:59:13;97784.22;;;9.40;38.48
16461;BME280;8341;42.048;24.650;2023-02-18T02:01:43;97784.69;;;9.38;38.69
16461;BME280;8341;42.048;24.650;2023-02-18T02:04:11;97788.94;;;9.39;38.58
16461;BME280;8341;42.048;24.650;2023-02-18T02:06:38;97792.25;;;9.43;39.20
16461;BME280;8341;42.048;24.650;2023-02-18T02:09:07;97785.91;;;9.47;39.09
16461;BME280;8341;42.048;24.650;2023-02-18T02:11:57;97792.56;;;9.45;38.35
16461;BME280;8341;42.048;24.650;2023-02-18T02:14:46;97790.47;;;9.50;37.80
16461;BME280;8341;42.048;24.650;2023-02-18T02:17:24;97799.38;;;9.50;38.24
16461;BME280;8341;42.048;24.650;2023-02-18T02:20:32;97791.06;;;9.44;38.74
16461;BME280;8341;42.048;24.650;2023-02-18T02:23:23;97790.31;;;9.44;39.04
16461;BME280;8341;42.048;24.650;2023-02-18T02:26:10;97790.44;;;9.40;37.79
16461;BME280;8341;42.048;24.650;2023-02-18T02:29:20;97793.47;;;9.42;37.88
16461;BME280;8341;42.048;24.650;2023-02-18T02:32:08;97798.31;;;9.38;38.52
16461;BME280;8341;42.048;24.650;2023-02-18T02:34:51;97799.19;;;9.35;38.49
16461;BME280;8341;42.048;24.650;2023-02-18T02:37:26;97802.22;;;9.37;38.38
16461;BME280;8341;42.048;24.650;2023-02-18T02:40:06;97806.59;;;9.35;38.32
16461;BME280;8341;42.048;24.650;2023-02-18T02:42:45;97808.28;;;9.41;38.99
16461;BME280;8341;42.048;24.650;2023-02-18T02:45:17;97813.41;;;9.30;37.78
16461;BME280;8341;42.048;24.650;2023-02-18T02:47:50;97815.09;;;9.37;39.48
16461;BME280;8341;42.048;24.650;2023-02-18T02:50:25;97819.00;;;9.36;38.49
16461;BME280;8341;42.048;24.650;2023-02-18T02:52:57;97814.63;;;9.38;38.70
16461;BME280;8341;42.048;24.650;2023-02-18T02:55:25;97823.56;;;9.39;39.60
16461;BME280;8341;42.048;24.650;2023-02-18T02:57:53;97823.56;;;9.39;39.03
16461;BME280;8341;42.048;24.650;2023-02-18T03:00:23;97815.88;;;9.47;39.01
16461;BME280;8341;42.048;24.650;2023-02-18T03:03:05;97809.66;;;9.46;38.83
16461;BME280;8341;42.048;24.650;2023-02-18T03:05:51;97817.53;;;9.44;39.11
16461;BME280;8341;42.048;24.650;2023-02-18T03:08:36;97814.63;;;9.48;39.45
16461;BME280;8341;42.048;24.650;2023-02-18T03:11:06;97812.69;;;9.48;38.71
16461;BME280;8341;42.048;24.650;2023-02-18T03:13:53;97809.38;;;9.53;38.54
16461;BME280;8341;42.048;24.650;2023-02-18T03:16:27;97809.38;;;9.53;38.81
16461;BME280;8341;42.048;24.650;2023-02-18T03:19:01;97805.31;;;9.58;39.14
16461;BME280;8341;42.048;24.650;2023-02-18T03:21:36;97807.56;;;9.59;38.68
16461;BME280;8341;42.048;24.650;2023-02-18T03:24:08;97803.34;;;9.67;40.00
16461;BME280;8341;42.048;24.650;2023-02-18T03:26:41;97803.50;;;9.64;40.37
16461;BME280;8341;42.048;24.650;2023-02-18T03:29:13;97791.09;;;9.63;39.97
16461;BME280;8341;42.048;24.650;2023-02-18T03:31:42;97789.09;;;9.63;39.06
16461;BME280;8341;42.048;24.650;2023-02-18T03:34:12;97786.25;;;9.67;38.44
16461;BME280;8341;42.048;24.650;2023-02-18T03:36:43;97791.69;;;9.67;38.53
16461;BME280;8341;42.048;24.650;2023-02-18T03:39:14;97787.78;;;9.68;38.73
16461;BME280;8341;42.048;24.650;2023-02-18T03:41:41;97795.94;;;9.68;38.56
16461;BME280;8341;42.048;24.650;2023-02-18T03:44:09;97791.22;;;9.68;38.71
16461;BME280;8341;42.048;24.650;2023-02-18T03:46:38;97796.09;;;9.64;38.69
16461;BME280;8341;42.048;24.650;2023-02-18T03:49:07;97792.00;;;9.60;38.95
16461;BME280;8341;42.048;24.650;2023-02-18T03:51:34;97803.50;;;9.64;39.75
16461;BME280;8341;42.048;24.650;2023-02-18T03:54:02;97796.84;;;9.65;39.66
16461;BME280;8341;42.048;24.650;2023-02-18T03:56:29;97798.22;;;9.60;39.04
16461;BME280;8341;42.048;24.650;2023-02-18T03:58:56;97805.16;;;9.61;39.05
16461;BME280;8341;42.048;24.650;2023-02-18T04:01:23;97803.50;;;9.55;38.79
16461;BME280;8341;42.048;24.650;2023-02-18T04:03:49;97805.31;;;9.58;37.99
16461;BME280;8341;42.048;24.650;2023-02-18T04:06:17;97808.16;;;9.54;39.38
16461;BME280;8341;42.048;24.650;2023-02-18T04:08:44;97818.44;;;9.50;39.08
16461;BME280;8341;42.048;24.650;2023-02-18T04:11:12;97819.97;;;9.51;38.60
16461;BME280;8341;42.048;24.650;2023-02-18T04:13:39;97822.81;;;9.48;40.26
16461;BME280;8341;42.048;24.650;2023-02-18T04:16:06;97822.06;;;9.47;40.16
16461;BME280;8341;42.048;24.650;2023-02-18T04:18:33;97828.25;;;9.48;39.58
16461;BME280;8341;42.048;24.650;2023-02-18T04:21:00;97836.75;;;9.59;38.71
16461;BME280;8341;42.048;24.650;2023-02-18T04:23:26;97837.97;;;9.58;38.28
16461;BME280;8341;42.048;24.650;2023-02-18T04:25:53;97831.59;;;9.52;39.08
16461;BME280;8341;42.048;24.650;2023-02-18T04:28:21;97835.69;;;9.47;39.15
16461;BME280;8341;42.048;24.650;2023-02-18T04:30:48;97845.22;;;9.52;38.59
16461;BME280;8341;42.048;24.650;2023-02-18T04:33:15;97854.28;;;9.49;38.87
16461;BME280;8341;42.048;24.650;2023-02-18T04:35:42;97851.13;;;9.59;38.51
16461;BME280;8341;42.048;24.650;2023-02-18T04:38:09;97849.19;;;9.60;38.44
16461;BME280;8341;42.048;24.650;2023-02-18T04:40:36;97848.25;;;9.54;38.90
16461;BME280;8341;42.048;24.650;2023-02-18T04:43:03;97852.19;;;9.53;39.42
16461;BME280;8341;42.048;24.650;2023-02-18T04:45:31;97866.28;;;9.60;39.27
16461;BME280;8341;42.048;24.650;2023-02-18T04:47:58;97870.66;;;9.58;39.41
16461;BME280;8341;42.048;24.650;2023-02-18T04:50:25;97863.03;;;9.43;39.87
16461;BME280;8341;42.048;24.650;2023-02-18T04:52:52;97866.09;;;9.55;39.21
16461;BME280;8341;42.048;24.650;2023-02-18T04:55:18;97857.94;;;9.55;40.56
16461;BME280;8341;42.048;24.650;2023-02-18T04:57:45;97865.34;;;9.54;39.98
16461;BME280;8341;42.048;24.650;2023-02-18T05:00:14;97847.31;;;9.48;39.95
16461;BME280;8341;42.048;24.650;2023-02-18T05:02:44;97850.66;;;9.52;39.01
16461;BME280;8341;42.048;24.650;2023-02-18T05:05:12;97841.72;;;9.51;39.13
16461;BME280;8341;42.048;24.650;2023-02-18T05:07:38;97844.03;;;9.53;38.80
16461;BME280;8341;42.048;24.650;2023-02-18T05:10:08;97835.06;;;9.43;38.67
16461;BME280;8341;42.048;24.650;2023-02-18T05:12:35;97835.22;;;9.49;38.71
16461;BME280;8341;42.048;24.650;2023-02-18T05:15:02;97840.66;;;9.49;39.46
16461;BME280;8341;42.048;24.650;2023-02-18T05:17:29;97851.56;;;9.49;39.65
16461;BME280;8341;42.048;24.650;2023-02-18T05:19:57;97850.19;;;9.44;39.21
16461;BME280;8341;42.048;24.650;2023-02-18T05:22:24;97840.19;;;9.41;38.94
16461;BME280;8341;42.048;24.650;2023-02-18T05:24:51;97855.94;;;9.46;38.79
16461;BME280;8341;42.048;24.650;2023-02-18T05:27:17;97837.19;;;9.48;39.02
16461;BME280;8341;42.048;24.650;2023-02-18T05:29:44;97846.47;;;9.60;39.01
16461;BME280;8341;42.048;24.650;2023-02-18T05:32:11;97836.94;;;9.64;38.22
16461;BME280;8341;42.048;24.650;2023-02-18T05:34:38;97836.50;;;9.75;37.70
16461;BME280;8341;42.048;24.650;2023-02-18T05:37:06;97831.66;;;9.79;38.50
16461;BME280;8341;42.048;24.650;2023-02-18T05:39:33;97825.00;;;9.89;38.13
16461;BME280;8341;42.048;24.650;2023-02-18T05:42:00;97825.31;;;9.91;37.86
16461;BME280;8341;42.048;24.650;2023-02-18T05:44:26;97831.06;;;9.93;37.96
16461;BME280;8341;42.048;24.650;2023-02-18T05:46:56;97823.50;;;9.88;39.68
16461;BME280;8341;42.048;24.650;2023-02-18T05:49:23;97804.41;;;9.79;37.58
16461;BME280;8341;42.048;24.650;2023-02-18T05:51:50;97822.00;;;9.96;38.65
16461;BME280;8341;42.048;24.650;2023-02-18T05:54:19;97825.03;;;9.98;38.75
16461;BME280;8341;42.048;24.650;2023-02-18T05:56:46;97830.03;;;10.08;38.84
16461;BME280;8341;42.048;24.650;2023-02-18T05:59:13;97825.19;;;10.03;38.42
16461;BME280;8341;42.048;24.650;2023-02-18T06:01:40;97827.16;;;10.12;38.38
16461;BME280;8341;42.048;24.650;2023-02-18T06:04:07;97827.75;;;10.25;38.13
16461;BME280;8341;42.048;24.650;2023-02-18T06:06:34;97835.03;;;10.28;37.83
16461;BME280;8341;42.048;24.650;2023-02-18T06:09:00;97828.50;;;10.44;37.35
16461;BME280;8341;42.048;24.650;2023-02-18T06:11:29;97822.31;;;10.52;37.41
16461;BME280;8341;42.048;24.650;2023-02-18T06:13:56;97833.47;;;10.63;36.85
16461;BME280;8341;42.048;24.650;2023-02-18T06:16:22;97823.75;;;10.72;36.61
16461;BME280;8341;42.048;24.650;2023-02-18T06:18:49;97814.97;;;10.77;36.53
16461;BME280;8341;42.048;24.650;2023-02-18T06:21:16;97807.34;;;10.90;36.17
16461;BME280;8341;42.048;24.650;2023-02-18T06:23:43;97817.94;;;10.97;35.98
16461;BME280;8341;42.048;24.650;2023-02-18T06:26:09;97815.34;;;11.02;35.80
16461;BME280;8341;42.048;24.650;2023-02-18T06:28:38;97818.66;;;11.06;35.96
16461;BME280;8341;42.048;24.650;2023-02-18T06:31:04;97812.88;;;11.13;34.56
16461;BME280;8341;42.048;24.650;2023-02-18T06:33:31;97819.81;;;11.23;35.60
16461;BME280;8341;42.048;24.650;2023-02-18T06:36:00;97827.19;;;11.32;34.61
16461;BME280;8341;42.048;24.650;2023-02-18T06:38:27;97825.47;;;11.44;35.10
16461;BME280;8341;42.048;24.650;2023-02-18T06:40:54;97817.97;;;11.53;34.81
16461;BME280;8341;42.048;24.650;2023-02-18T06:43:21;97821.59;;;11.59;34.72
16461;BME280;8341;42.048;24.650;2023-02-18T06:45:49;97823.06;;;11.69;33.92
16461;BME280;8341;42.048;24.650;2023-02-18T06:48:16;97817.84;;;11.80;34.48
16461;BME280;8341;42.048;24.650;2023-02-18T06:50:43;97829.75;;;11.92;34.31
16461;BME280;8341;42.048;24.650;2023-02-18T06:53:10;97823.94;;;11.99;34.18
16461;BME280;8341;42.048;24.650;2023-02-18T06:55:38;97828.78;;;12.04;33.58
16461;BME280;8341;42.048;24.650;2023-02-18T06:58:04;97825.59;;;12.20;32.87
16461;BME280;8341;42.048;24.650;2023-02-18T07:00:31;97817.06;;;12.42;33.42
16461;BME280;8341;42.048;24.650;2023-02-18T07:02:59;97802.91;;;12.58;34.00
16461;BME280;8341;42.048;24.650;2023-02-18T07:05:26;97792.16;;;12.69;33.96
16461;BME280;8341;42.048;24.650;2023-02-18T07:07:53;97778.66;;;12.80;33.76
16461;BME280;8341;42.048;24.650;2023-02-18T07:10:20;97779.78;;;12.88;33.73
16461;BME280;8341;42.048;24.650;2023-02-18T07:12:47;97759.81;;;13.02;33.51
16461;BME280;8341;42.048;24.650;2023-02-18T07:15:14;97754.06;;;13.00;32.79
16461;BME280;8341;42.048;24.650;2023-02-18T07:17:41;97757.56;;;13.01;32.71
16461;BME280;8341;42.048;24.650;2023-02-18T07:20:10;97750.19;;;13.22;31.78
16461;BME280;8341;42.048;24.650;2023-02-18T07:22:37;97759.63;;;13.21;32.00
16461;BME280;8341;42.048;24.650;2023-02-18T07:25:04;97751.06;;;13.33;31.93
16461;BME280;8341;42.048;24.650;2023-02-18T07:27:30;97751.03;;;13.48;31.88
16461;BME280;8341;42.048;24.650;2023-02-18T07:29:57;97750.78;;;13.66;32.30
16461;BME280;8341;42.048;24.650;2023-02-18T07:32:24;97746.16;;;13.77;30.72
16461;BME280;8341;42.048;24.650;2023-02-18T07:34:51;97745.59;;;13.94;29.75
16461;BME280;8341;42.048;24.650;2023-02-18T07:37:20;97744.69;;;14.02;30.17
16461;BME280;8341;42.048;24.650;2023-02-18T07:39:47;97748.38;;;14.19;29.40
16461;BME280;8341;42.048;24.650;2023-02-18T07:42:13;97744.66;;;14.22;29.28
16461;BME280;8341;42.048;24.650;2023-02-18T07:44:41;97738.66;;;14.44;28.71
16461;BME280;8341;42.048;24.650;2023-02-18T07:47:09;97731.28;;;14.56;29.21
16461;BME280;8341;42.048;24.650;2023-02-18T07:49:38;97737.25;;;14.85;27.50
16461;BME280;8341;42.048;24.650;2023-02-18T07:52:05;97725.66;;;15.07;27.81
16461;BME280;8341;42.048;24.650;2023-02-18T07:54:33;97732.75;;;15.25;28.11
16461;BME280;8341;42.048;24.650;2023-02-18T07:57:00;97742.47;;;15.20;28.15
16461;BME280;8341;42.048;24.650;2023-02-18T07:59:26;97731.00;;;15.22;27.70
16461;BME280;8341;42.048;24.650;2023-02-18T08:01:53;97733.53;;;15.25;28.01
16461;BME280;8341;42.048;24.650;2023-02-18T08:04:20;97724.56;;;15.30;28.39
16461;BME280;8341;42.048;24.650;2023-02-18T08:06:47;97718.53;;;15.26;26.57
16461;BME280;8341;42.048;24.650;2023-02-18T08:09:15;97721.53;;;15.28;28.97
16461;BME280;8341;42.048;24.650;2023-02-18T08:11:44;97714.69;;;15.07;27.59
16461;BME280;8341;42.048;24.650;2023-02-18T08:14:11;97713.19;;;15.48;28.76
16461;BME280;8341;42.048;24.650;2023-02-18T08:16:38;97704.53;;;15.78;27.41
16461;BME280;8341;42.048;24.650;2023-02-18T08:19:04;97713.88;;;16.19;27.94
16461;BME280;8341;42.048;24.650;2023-02-18T08:21:32;97718.19;;;16.48;28.27
16461;BME280;8341;42.048;24.650;2023-02-18T08:23:59;97710.94;;;16.78;26.57
16461;BME280;8341;42.048;24.650;2023-02-18T08:26:26;97715.91;;;16.52;27.30
16461;BME280;8341;42.048;24.650;2023-02-18T08:28:54;97720.41;;;16.21;26.72
16461;BME280;8341;42.048;24.650;2023-02-18T08:31:23;97704.56;;;15.89;27.19
16461;BME280;8341;42.048;24.650;2023-02-18T08:33:51;97718.59;;;15.96;26.67
16461;BME280;8341;42.048;24.650;2023-02-18T08:36:18;97713.63;;;16.17;26.47
16461;BME280;8341;42.048;24.650;2023-02-18T08:38:44;97715.41;;;16.42;26.99
16461;BME280;8341;42.048;24.650;2023-02-18T08:41:12;97709.69;;;16.62;27.92
16461;BME280;8341;42.048;24.650;2023-02-18T08:43:40;97708.94;;;16.78;26.95
16461;BME280;8341;42.048;24.650;2023-02-18T08:46:08;97711.19;;;16.74;24.95
16461;BME280;8341;42.048;24.650;2023-02-18T08:48:35;97703.91;;;16.94;25.78
16461;BME280;8341;42.048;24.650;2023-02-18T08:51:11;97703.91;;;16.82;26.30
16461;BME280;8341;42.048;24.650;2023-02-18T08:53:38;97717.72;;;16.71;26.30
16461;BME280;8341;42.048;24.650;2023-02-18T08:56:06;97716.72;;;16.63;26.90
16461;BME280;8341;42.048;24.650;2023-02-18T08:58:32;97728.72;;;16.60;26.84
16461;BME280;8341;42.048;24.650;2023-02-18T09:01:02;97736.13;;;16.04;27.42
16461;BME280;8341;42.048;24.650;2023-02-18T09:03:31;97737.16;;;16.29;27.31
16461;BME280;8341;42.048;24.650;2023-02-18T09:05:58;97749.63;;;16.08;27.16
16461;BME280;8341;42.048;24.650;2023-02-18T09:08:25;97735.75;;;15.69;27.30
16461;BME280;8341;42.048;24.650;2023-02-18T09:10:54;97739.53;;;15.83;28.35
16461;BME280;8341;42.048;24.650;2023-02-18T09:13:22;97760.78;;;15.77;26.92
16461;BME280;8341;42.048;24.650;2023-02-18T09:15:56;97758.78;;;15.77;28.19
16461;BME280;8341;42.048;24.650;2023-02-18T09:18:23;97767.53;;;15.76;27.13
16461;BME280;8341;42.048;24.650;2023-02-18T09:20:54;97774.81;;;15.84;26.75
16461;BME280;8341;42.048;24.650;2023-02-18T09:23:22;97768.19;;;16.24;27.41
16461;BME280;8341;42.048;24.650;2023-02-18T09:25:48;97768.19;;;16.29;26.58
16461;BME280;8341;42.048;24.650;2023-02-18T09:28:15;97761.72;;;16.38;26.76
16461;BME280;8341;42.048;24.650;2023-02-18T09:30:42;97757.50;;;16.54;26.79
16461;BME280;8341;42.048;24.650;2023-02-18T09:33:09;97749.97;;;16.54;26.45
16461;BME280;8341;42.048;24.650;2023-02-18T09:35:38;97749.44;;;16.45;26.84
16461;BME280;8341;42.048;24.650;2023-02-18T09:38:06;97751.19;;;16.31;26.43
16461;BME280;8341;42.048;24.650;2023-02-18T09:40:34;97748.13;;;16.18;26.76
16461;BME280;8341;42.048;24.650;2023-02-18T09:43:04;97741.16;;;16.28;26.79
16461;BME280;8341;42.048;24.650;2023-02-18T09:45:31;97751.38;;;16.05;27.01
16461;BME280;8341;42.048;24.650;2023-02-18T09:48:00;97740.63;;;16.07;26.90
16461;BME280;8341;42.048;24.650;2023-02-18T09:50:30;97747.88;;;16.10;26.92
16461;BME280;8341;42.048;24.650;2023-02-18T09:52:59;97737.66;;;16.16;27.14
16461;BME280;8341;42.048;24.650;2023-02-18T09:55:29;97743.91;;;16.17;27.02
16461;BME280;8341;42.048;24.650;2023-02-18T09:58:00;97743.91;;;16.17;26.76
16461;BME280;8341;42.048;24.650;2023-02-18T10:00:30;97741.94;;;16.45;26.79
16461;BME280;8341;42.048;24.650;2023-02-18T10:03:01;97735.47;;;16.81;26.58
16461;BME280;8341;42.048;24.650;2023-02-18T10:05:30;97729.19;;;17.09;26.58
16461;BME280;8341;42.048;24.650;2023-02-18T10:08:00;97736.13;;;17.43;26.32
16461;BME280;8341;42.048;24.650;2023-02-18T10:10:36;97727.22;;;17.83;25.68
16461;BME280;8341;42.048;24.650;2023-02-18T10:13:12;97718.50;;;18.20;25.16
16461;BME280;8341;42.048;24.650;2023-02-18T10:15:40;97709.91;;;18.29;25.22
16461;BME280;8341;42.048;24.650;2023-02-18T10:18:18;97711.31;;;18.41;24.61
16461;BME280;8341;42.048;24.650;2023-02-18T10:20:47;97698.97;;;18.53;24.55
16461;BME280;8341;42.048;24.650;2023-02-18T10:23:15;97701.63;;;18.64;24.34
16461;BME280;8341;42.048;24.650;2023-02-18T10:25:45;97692.16;;;18.54;24.44
16461;BME280;8341;42.048;24.650;2023-02-18T10:28:14;97682.00;;;18.33;24.47
16461;BME280;8341;42.048;24.650;2023-02-18T10:30:45;97685.97;;;18.43;24.59
16461;BME280;8341;42.048;24.650;2023-02-18T10:33:22;97676.53;;;18.62;24.44
16461;BME280;8341;42.048;24.650;2023-02-18T10:35:57;97686.94;;;18.51;24.48
16461;BME280;8341;42.048;24.650;2023-02-18T10:38:36;97677.75;;;18.32;24.93
16461;BME280;8341;42.048;24.650;2023-02-18T10:41:13;97674.66;;;18.76;24.54
16461;BME280;8341;42.048;24.650;2023-02-18T10:43:44;97657.91;;;18.68;24.37
16461;BME280;8341;42.048;24.650;2023-02-18T10:46:22;97665.69;;;18.94;25.21
16461;BME280;8341;42.048;24.650;2023-02-18T10:49:05;97664.63;;;19.21;24.81
16461;BME280;8341;42.048;24.650;2023-02-18T10:51:36;97657.25;;;19.29;25.01
16461;BME280;8341;42.048;24.650;2023-02-18T10:54:06;97655.44;;;18.89;25.43
16461;BME280;8341;42.048;24.650;2023-02-18T10:56:38;97653.00;;;18.56;26.45
16461;BME280;8341;42.048;24.650;2023-02-18T10:59:11;97640.66;;;18.57;26.29
16461;BME280;8341;42.048;24.650;2023-02-18T11:01:38;97654.16;;;18.66;26.43
16461;BME280;8341;42.048;24.650;2023-02-18T11:04:11;97635.63;;;18.61;26.54
16461;BME280;8341;42.048;24.650;2023-02-18T11:06:40;97649.06;;;18.70;26.49
16461;BME280;8341;42.048;24.650;2023-02-18T11:09:24;97638.47;;;18.50;26.62
16461;BME280;8341;42.048;24.650;2023-02-18T11:12:00;97643.91;;;18.85;26.22
16461;BME280;8341;42.048;24.650;2023-02-18T11:14:42;97653.56;;;19.21;26.12
16461;BME280;8341;42.048;24.650;2023-02-18T11:17:16;97647.94;;;19.08;26.47
16461;BME280;8341;42.048;24.650;2023-02-18T11:19:51;97643.97;;;19.04;26.25
16461;BME280;8341;42.048;24.650;2023-02-18T11:22:20;97639.88;;;19.10;26.29
16461;BME280;8341;42.048;24.650;2023-02-18T11:24:47;97635.66;;;19.28;25.93
16461;BME280;8341;42.048;24.650;2023-02-18T11:27:23;97640.41;;;19.52;25.56
16461;BME280;8341;42.048;24.650;2023-02-18T11:29:53;97638.31;;;19.58;26.04
16461;BME280;8341;42.048;24.650;2023-02-18T11:32:25;97626.34;;;19.50;25.09
16461;BME280;8341;42.048;24.650;2023-02-18T11:34:53;97624.13;;;19.24;25.86
16461;BME280;8341;42.048;24.650;2023-02-18T11:37:20;97612.56;;;19.25;25.80
16461;BME280;8341;42.048;24.650;2023-02-18T11:39:49;97616.59;;;19.49;25.90
16461;BME280;8341;42.048;24.650;2023-02-18T11:42:19;97623.75;;;19.57;25.65
16461;BME280;8341;42.048;24.650;2023-02-18T11:44:53;97622.84;;;19.68;25.92
16461;BME280;8341;42.048;24.650;2023-02-18T11:47:24;97615.44;;;19.76;26.32
16461;BME280;8341;42.048;24.650;2023-02-18T11:50:13;97610.13;;;19.78;26.35
16461;BME280;8341;42.048;24.650;2023-02-18T11:52:42;97606.59;;;19.96;26.28
16461;BME280;8341;42.048;24.650;2023-02-18T11:55:14;97609.53;;;19.85;26.47
16461;BME280;8341;42.048;24.650;2023-02-18T11:57:44;97607.13;;;19.94;25.90
16461;BME280;8341;42.048;24.650;2023-02-18T12:00:20;97605.44;;;20.23;25.77
16461;BME280;8341;42.048;24.650;2023-02-18T12:02:51;97604.53;;;20.15;25.81
16461;BME280;8341;42.048;24.650;2023-02-18T12:05:21;97595.84;;;20.24;25.70
16461;BME280;8341;42.048;24.650;2023-02-18T12:07:51;97592.91;;;20.35;25.31
16461;BME280;8341;42.048;24.650;2023-02-18T12:10:25;97587.25;;;20.09;25.38
16461;BME280;8341;42.048;24.650;2023-02-18T12:12:57;97584.84;;;19.87;26.31
16461;BME280;8341;42.048;24.650;2023-02-18T12:15:42;97578.84;;;19.83;26.33
16461;BME280;8341;42.048;24.650;2023-02-18T12:18:40;97580.41;;;19.97;26.06
16461;BME280;8341;42.048;24.650;2023-02-18T12:21:25;97580.00;;;19.37;26.88
16461;BME280;8341;42.048;24.650;2023-02-18T12:24:01;97568.13;;;19.61;26.73
16461;BME280;8341;42.048;24.650;2023-02-18T12:26:36;97560.94;;;19.71;26.91
16461;BME280;8341;42.048;24.650;2023-02-18T12:29:16;97560.34;;;19.59;27.05
16461;BME280;8341;42.048;24.650;2023-02-18T12:32:04;97560.38;;;19.72;26.91
16461;BME280;8341;42.048;24.650;2023-02-18T12:34:42;97559.38;;;19.57;26.84
16461;BME280;8341;42.048;24.650;2023-02-18T12:37:48;97551.97;;;19.27;27.08
16461;BME280;8341;42.048;24.650;2023-02-18T12:40:39;97545.53;;;19.19;27.44
16461;BME280;8341;42.048;24.650;2023-02-18T12:43:16;97556.88;;;18.97;27.86
16461;BME280;8341;42.048;24.650;2023-02-18T12:48:58;97552.03;;;18.79;27.97
16461;BME280;8341;42.048;24.650;2023-02-18T12:51:37;97551.94;;;19.09;28.08
16461;BME280;8341;42.048;24.650;2023-02-18T12:57:22;97543.84;;;19.11;27.92
16461;BME280;8341;42.048;24.650;2023-02-18T13:00:10;97537.19;;;19.44;27.76
16461;BME280;8341;42.048;24.650;2023-02-18T13:03:10;97537.81;;;19.68;27.35
16461;BME280;8341;42.048;24.650;2023-02-18T13:05:52;97531.09;;;19.64;26.91
16461;BME280;8341;42.048;24.650;2023-02-18T13:08:36;97525.13;;;19.60;26.97
16461;BME280;8341;42.048;24.650;2023-02-18T13:11:18;97523.34;;;19.44;27.69
16461;BME280;8341;42.048;24.650;2023-02-18T13:13:49;97530.16;;;19.43;27.45
16461;BME280;8341;42.048;24.650;2023-02-18T13:16:20;97521.94;;;19.37;28.05
16461;BME280;8341;42.048;24.650;2023-02-18T13:18:55;97525.44;;;19.38;27.55
16461;BME280;8341;42.048;24.650;2023-02-18T13:21:27;97526.13;;;19.44;27.87
16461;BME280;8341;42.048;24.650;2023-02-18T13:23:57;97522.50;;;19.30;27.99
16461;BME280;8341;42.048;24.650;2023-02-18T13:26:27;97525.72;;;19.15;28.07
16461;BME280;8341;42.048;24.650;2023-02-18T13:29:06;97527.59;;;19.07;28.14